createdAt,value
2023-02-09T00:02:15.474Z,-4.10
2023-02-09T00:04:42.062Z,-4.17
2023-02-09T00:07:08.523Z,-4.24
2023-02-09T00:09:34.943Z,-4.35
2023-02-09T00:12:20.094Z,-4.49
2023-02-09T00:14:46.528Z,-4.60
2023-02-09T00:17:13.504Z,-4.76
2023-02-09T00:19:40.060Z,-4.85
2023-02-09T00:22:06.504Z,-4.87
2023-02-09T00:24:32.920Z,-4.90
2023-02-09T00:26:59.399Z,-4.94
2023-02-09T00:29:25.831Z,-5.00
2023-02-09T00:31:52.421Z,-5.08
2023-02-09T00:36:47.941Z,-5.12
2023-02-09T00:39:14.417Z,-5.18
2023-02-09T00:41:59.696Z,-5.24
2023-02-09T00:44:26.168Z,-5.34
2023-02-09T00:46:52.666Z,-5.36
2023-02-09T00:49:19.175Z,-5.37
2023-02-09T00:51:46.450Z,-5.46
2023-02-09T00:54:13.506Z,-5.47
2023-02-09T00:56:39.989Z,-5.50
2023-02-09T00:59:06.626Z,-5.65
2023-02-09T01:01:33.085Z,-5.71
2023-02-09T01:03:59.546Z,-5.79
2023-02-09T01:06:25.984Z,-5.77
2023-02-09T01:08:52.434Z,-5.94
2023-02-09T01:11:18.949Z,-5.90
2023-02-09T01:13:46.250Z,-5.88
2023-02-09T01:16:15.927Z,-5.86
2023-02-09T01:18:43.197Z,-5.88
2023-02-09T01:21:11.748Z,-5.96
2023-02-09T01:23:38.203Z,-5.97
2023-02-09T01:26:07.141Z,-6.03
2023-02-09T01:28:33.706Z,-6.09
2023-02-09T01:31:00.320Z,-6.13
2023-02-09T01:33:26.804Z,-6.28
2023-02-09T01:35:58.153Z,-6.35
2023-02-09T01:38:24.690Z,-6.42
2023-02-09T01:40:51.161Z,-6.48
2023-02-09T01:43:17.837Z,-6.49
2023-02-09T01:45:46.487Z,-6.53
2023-02-09T01:48:14.848Z,-6.57
2023-02-09T01:50:45.769Z,-6.56
2023-02-09T01:53:12.700Z,-6.69
2023-02-09T01:56:04.893Z,-6.74
2023-02-09T01:58:32.156Z,-6.79
2023-02-09T02:01:00.178Z,-6.83
2023-02-09T02:03:28.439Z,-6.83
2023-02-09T02:06:08.387Z,-6.86
2023-02-09T02:08:55.372Z,-6.86
2023-02-09T02:11:27.620Z,-6.88
2023-02-09T02:13:54.103Z,-6.90
2023-02-09T02:16:49.771Z,-6.89
2023-02-09T02:19:44.505Z,-6.89
2023-02-09T02:22:29.808Z,-6.88
2023-02-09T02:25:33.953Z,-6.92
2023-02-09T02:28:19.058Z,-6.97
2023-02-09T02:31:07.530Z,-7.01
2023-02-09T02:33:46.242Z,-7.04
2023-02-09T02:36:31.658Z,-7.12
2023-02-09T02:39:16.176Z,-7.17
2023-02-09T02:42:17.632Z,-7.16
2023-02-09T02:44:51.357Z,-7.15
2023-02-09T02:47:20.768Z,-7.15
2023-02-09T02:49:58.799Z,-7.19
2023-02-09T02:52:25.332Z,-7.18
2023-02-09T02:55:05.022Z,-7.16
2023-02-09T02:57:34.624Z,-7.14
2023-02-09T03:00:06.529Z,-7.15
2023-02-09T03:02:41.564Z,-7.17
2023-02-09T03:05:09.006Z,-7.18
2023-02-09T03:07:35.555Z,-7.14
2023-02-09T03:10:03.325Z,-7.16
2023-02-09T03:12:51.456Z,-7.22
2023-02-09T03:15:49.798Z,-7.26
2023-02-09T03:18:35.012Z,-7.28
2023-02-09T03:21:09.138Z,-7.30
2023-02-09T03:24:13.055Z,-7.37
2023-02-09T03:26:48.092Z,-7.40
2023-02-09T03:29:16.733Z,-7.43
2023-02-09T03:31:43.997Z,-7.50
2023-02-09T03:34:10.721Z,-7.52
2023-02-09T03:36:39.309Z,-7.57
2023-02-09T03:39:05.899Z,-7.55
2023-02-09T03:41:32.341Z,-7.51
2023-02-09T03:44:17.439Z,-7.55
2023-02-09T03:46:44.119Z,-7.59
2023-02-09T03:49:11.280Z,-7.58
2023-02-09T03:51:37.707Z,-7.59
2023-02-09T03:54:04.346Z,-7.60
2023-02-09T03:56:30.766Z,-7.60
2023-02-09T03:58:57.210Z,-7.58
2023-02-09T04:01:23.697Z,-7.58
2023-02-09T04:03:50.214Z,-7.54
2023-02-09T04:06:16.686Z,-7.57
2023-02-09T04:08:43.337Z,-7.60
2023-02-09T04:11:09.886Z,-7.62
2023-02-09T04:13:36.414Z,-7.64
2023-02-09T04:16:03.011Z,-7.64
2023-02-09T04:18:29.501Z,-7.67
2023-02-09T04:20:55.921Z,-7.71
2023-02-09T04:23:23.544Z,-7.72
2023-02-09T04:25:49.968Z,-7.77
2023-02-09T04:28:16.557Z,-7.79
2023-02-09T04:30:43.828Z,-7.83
2023-02-09T04:33:13.419Z,-7.86
2023-02-09T04:35:39.856Z,-7.86
2023-02-09T04:38:06.280Z,-7.91
2023-02-09T04:40:32.756Z,-7.90
2023-02-09T04:42:59.250Z,-7.91
2023-02-09T04:45:25.639Z,-7.93
2023-02-09T04:47:52.077Z,-7.89
2023-02-09T04:50:18.614Z,-7.89
2023-02-09T04:52:45.037Z,-7.91
2023-02-09T04:55:11.486Z,-7.91
2023-02-09T04:57:56.669Z,-7.97
2023-02-09T05:00:23.101Z,-7.97
2023-02-09T05:02:49.522Z,-8.00
2023-02-09T05:05:16.076Z,-7.97
2023-02-09T05:07:42.486Z,-7.98
2023-02-09T05:10:09.253Z,-7.96
2023-02-09T05:12:35.756Z,-7.96
2023-02-09T05:15:02.789Z,-7.94
2023-02-09T05:17:32.326Z,-7.97
2023-02-09T05:19:59.354Z,-7.95
2023-02-09T05:22:26.331Z,-7.93
2023-02-09T05:24:53.125Z,-7.92
2023-02-09T05:27:19.612Z,-7.95
2023-02-09T05:29:46.182Z,-7.95
2023-02-09T05:32:12.815Z,-7.99
2023-02-09T05:34:39.336Z,-8.02
2023-02-09T05:37:06.212Z,-8.01
2023-02-09T05:39:33.333Z,-8.00
2023-02-09T05:42:18.057Z,-7.98
2023-02-09T05:44:47.238Z,-7.98
2023-02-09T05:47:16.574Z,-8.02
2023-02-09T05:49:43.039Z,-8.05
2023-02-09T05:52:10.656Z,-8.03
2023-02-09T05:54:37.496Z,-8.06
2023-02-09T05:57:05.275Z,-8.09
2023-02-09T05:59:32.377Z,-8.14
2023-02-09T06:01:59.329Z,-8.19
2023-02-09T06:04:26.917Z,-8.23
2023-02-09T06:06:53.937Z,-8.27
2023-02-09T06:09:20.895Z,-8.23
2023-02-09T06:11:47.993Z,-8.20
2023-02-09T06:14:14.522Z,-8.18
2023-02-09T06:16:41.071Z,-8.14
2023-02-09T06:19:11.457Z,-8.03
2023-02-09T06:21:37.952Z,-7.92
2023-02-09T06:24:04.974Z,-7.65
2023-02-09T06:26:31.548Z,-7.43
2023-02-09T06:28:58.353Z,-7.17
2023-02-09T06:31:25.231Z,-7.06
2023-02-09T06:33:51.872Z,-6.93
2023-02-09T06:36:18.397Z,-6.78
2023-02-09T06:38:44.802Z,-6.62
2023-02-09T06:41:11.250Z,-6.49
2023-02-09T06:43:38.109Z,-6.42
2023-02-09T06:46:09.283Z,-6.32
2023-02-09T06:48:36.977Z,-6.26
2023-02-09T06:51:11.222Z,-6.18
2023-02-09T06:53:39.113Z,-6.09
2023-02-09T06:56:06.269Z,-6.02
2023-02-09T06:58:33.216Z,-6.00
2023-02-09T07:01:07.639Z,-5.93
2023-02-09T07:03:37.894Z,-5.92
2023-02-09T07:06:06.791Z,-5.95
2023-02-09T07:08:33.818Z,-5.85
2023-02-09T07:11:08.558Z,-5.73
2023-02-09T07:13:35.612Z,-5.56
2023-02-09T07:16:04.018Z,-5.32
2023-02-09T07:18:30.571Z,-5.07
2023-02-09T07:21:00.516Z,-4.96
2023-02-09T07:23:27.276Z,-4.86
2023-02-09T07:25:54.250Z,-4.88
2023-02-09T07:28:21.649Z,-4.76
2023-02-09T07:30:52.583Z,-4.59
2023-02-09T07:33:20.499Z,-4.36
2023-02-09T07:35:48.681Z,-4.12
2023-02-09T07:38:17.879Z,-3.97
2023-02-09T07:40:46.510Z,-3.73
2023-02-09T07:43:14.226Z,-3.62
2023-02-09T07:45:43.006Z,-3.34
2023-02-09T07:48:11.332Z,-3.21
2023-02-09T07:50:38.208Z,-3.03
2023-02-09T07:53:05.688Z,-2.76
2023-02-09T07:55:32.182Z,-2.36
2023-02-09T07:57:58.750Z,-2.23
2023-02-09T08:00:26.458Z,-2.16
2023-02-09T08:02:53.150Z,-2.03
2023-02-09T08:05:28.192Z,-1.67
2023-02-09T08:07:55.985Z,-1.43
2023-02-09T08:10:23.021Z,-1.19
2023-02-09T08:13:04.993Z,-0.88
2023-02-09T08:16:10.132Z,-0.64
2023-02-09T08:18:41.451Z,-0.32
2023-02-09T08:21:11.387Z,-0.37
2023-02-09T08:23:40.865Z,-0.06
2023-02-09T08:26:10.317Z,0.06
2023-02-09T08:29:11.767Z,0.31
2023-02-09T08:31:34.902Z,0.57
2023-02-09T08:34:01.327Z,0.65
2023-02-09T08:36:27.824Z,0.66
2023-02-09T08:38:54.213Z,1.06
2023-02-09T08:41:20.642Z,1.16
2023-02-09T08:43:49.355Z,1.09
2023-02-09T08:46:16.038Z,1.33
2023-02-09T08:48:44.509Z,1.25
2023-02-09T08:51:12.465Z,1.34
2023-02-09T08:53:39.439Z,1.34
2023-02-09T08:56:06.270Z,1.31
2023-02-09T08:58:33.516Z,1.45
2023-02-09T09:01:00.682Z,1.48
2023-02-09T09:03:31.276Z,1.67
2023-02-09T09:05:59.544Z,1.65
2023-02-09T09:08:26.122Z,1.75
2023-02-09T09:10:52.695Z,1.73
2023-02-09T09:13:19.768Z,1.78
2023-02-09T09:15:46.827Z,1.93
2023-02-09T09:18:13.496Z,1.68
2023-02-09T09:20:40.708Z,1.90
2023-02-09T09:23:07.893Z,2.12
2023-02-09T09:25:34.579Z,1.98
2023-02-09T09:28:01.133Z,2.16
2023-02-09T09:30:27.588Z,2.33
2023-02-09T09:32:55.251Z,2.18
2023-02-09T09:35:21.814Z,2.27
2023-02-09T09:37:51.333Z,2.33
2023-02-09T09:40:22.892Z,2.25
2023-02-09T09:42:54.533Z,1.98
2023-02-09T09:45:23.067Z,1.96
2023-02-09T09:47:50.470Z,1.80
2023-02-09T09:50:27.977Z,1.80
2023-02-09T09:53:00.907Z,1.80
2023-02-09T09:55:30.092Z,1.77
2023-02-09T09:58:00.830Z,1.72
2023-02-09T10:00:45.690Z,1.84
2023-02-09T10:03:20.278Z,1.65
2023-02-09T10:05:55.904Z,1.76
2023-02-09T10:08:41.951Z,1.79
2023-02-09T10:11:14.592Z,1.79
2023-02-09T10:13:53.458Z,1.91
2023-02-09T10:16:28.238Z,1.88
2023-02-09T10:18:55.860Z,1.74
2023-02-09T10:21:24.871Z,1.49
2023-02-09T10:24:00.447Z,1.58
2023-02-09T10:26:31.819Z,1.63
2023-02-09T10:29:27.725Z,1.70
2023-02-09T10:32:03.790Z,1.82
2023-02-09T10:34:37.311Z,1.77
2023-02-09T10:37:18.511Z,1.81
2023-02-09T10:39:47.543Z,1.72
2023-02-09T10:42:29.477Z,1.66
2023-02-09T10:44:57.218Z,1.68
2023-02-09T10:47:23.792Z,1.63
2023-02-09T10:50:01.196Z,1.74
2023-02-09T10:52:33.854Z,1.73
2023-02-09T10:55:04.277Z,1.71
2023-02-09T10:57:39.824Z,1.93
2023-02-09T11:00:16.527Z,1.88
2023-02-09T11:02:51.841Z,1.90
2023-02-09T11:05:21.381Z,1.81
2023-02-09T11:07:57.790Z,1.91
2023-02-09T11:10:25.279Z,1.73
2023-02-09T11:12:51.694Z,1.48
2023-02-09T11:15:26.197Z,1.62
2023-02-09T11:18:12.590Z,1.81
2023-02-09T11:20:51.783Z,1.90
2023-02-09T11:23:53.479Z,2.04
2023-02-09T11:26:53.490Z,1.97
2023-02-09T11:29:24.489Z,1.71
2023-02-09T11:31:50.911Z,1.69
2023-02-09T11:34:29.600Z,1.83
2023-02-09T11:37:28.106Z,1.81
2023-02-09T11:40:03.299Z,1.91
2023-02-09T11:42:45.202Z,1.78
2023-02-09T11:45:15.037Z,1.78
2023-02-09T11:47:47.574Z,1.81
2023-02-09T11:50:28.131Z,1.88
2023-02-09T11:53:06.030Z,1.74
2023-02-09T11:56:02.012Z,1.66
2023-02-09T11:58:36.351Z,1.73
2023-02-09T12:01:15.738Z,1.84
2023-02-09T12:03:59.451Z,1.92
2023-02-09T12:06:30.110Z,1.83
2023-02-09T12:09:11.754Z,1.83
2023-02-09T12:12:08.605Z,1.82
2023-02-09T12:14:54.390Z,1.87
2023-02-09T12:17:40.739Z,1.83
2023-02-09T12:20:25.966Z,1.83
2023-02-09T12:22:58.028Z,1.75
2023-02-09T12:25:51.714Z,1.77
2023-02-09T12:28:24.336Z,1.86
2023-02-09T12:30:51.236Z,1.83
2023-02-09T12:33:23.829Z,1.83
2023-02-09T12:36:15.945Z,1.93
2023-02-09T12:38:56.571Z,1.91
2023-02-09T12:41:40.991Z,1.90
2023-02-09T12:44:10.433Z,1.80
2023-02-09T12:46:51.750Z,1.77
2023-02-09T12:49:27.409Z,1.83
2023-02-09T12:52:12.356Z,1.79
2023-02-09T12:54:48.370Z,1.81
2023-02-09T12:57:14.747Z,1.80
2023-02-09T12:59:41.684Z,1.79
2023-02-09T13:02:08.053Z,1.76
2023-02-09T13:04:43.880Z,1.83
2023-02-09T13:07:32.241Z,1.84
2023-02-09T13:10:00.626Z,1.92
2023-02-09T13:12:36.025Z,1.93
2023-02-09T13:15:11.817Z,1.99
2023-02-09T13:17:48.684Z,2.04
2023-02-09T13:20:31.381Z,2.13
2023-02-09T13:23:29.068Z,2.22
2023-02-09T13:26:16.399Z,2.14
2023-02-09T13:28:43.987Z,2.18
2023-02-09T13:31:29.328Z,2.16
2023-02-09T13:34:00.399Z,2.15
2023-02-09T13:36:55.326Z,2.16
2023-02-09T13:39:25.085Z,2.14
2023-02-09T13:41:53.724Z,2.17
2023-02-09T13:44:31.982Z,2.13
2023-02-09T13:47:01.016Z,2.20
2023-02-09T13:49:29.501Z,2.21
2023-02-09T13:52:16.585Z,2.24
2023-02-09T13:54:43.868Z,2.19
2023-02-09T13:57:23.671Z,2.21
2023-02-09T13:59:50.581Z,2.17
2023-02-09T14:02:21.206Z,2.15
2023-02-09T14:04:51.190Z,2.14
2023-02-09T14:07:19.375Z,2.11
2023-02-09T14:09:51.533Z,2.08
2023-02-09T14:12:52.723Z,2.02
2023-02-09T14:15:40.279Z,2.06
2023-02-09T14:18:44.092Z,2.00
2023-02-09T14:21:10.425Z,2.03
2023-02-09T14:23:38.320Z,1.98
2023-02-09T14:26:13.833Z,1.98
2023-02-09T14:28:40.899Z,1.97
2023-02-09T14:31:19.214Z,1.90
2023-02-09T14:33:48.849Z,1.84
2023-02-09T14:36:29.076Z,1.86
2023-02-09T14:39:17.779Z,1.88
2023-02-09T14:42:19.873Z,1.83
2023-02-09T14:44:51.204Z,1.78
2023-02-09T14:47:50.056Z,1.67
2023-02-09T14:50:19.164Z,1.68
2023-02-09T14:52:47.199Z,1.64
2023-02-09T14:55:23.594Z,1.60
2023-02-09T14:57:49.990Z,1.52
2023-02-09T15:00:25.760Z,1.45
2023-02-09T15:02:53.333Z,1.37
2023-02-09T15:05:21.395Z,1.37
2023-02-09T15:07:51.632Z,1.40
2023-02-09T15:10:17.975Z,1.33
2023-02-09T15:12:44.504Z,1.31
2023-02-09T15:15:18.915Z,1.30
2023-02-09T15:17:45.438Z,1.20
2023-02-09T15:20:17.398Z,1.11
2023-02-09T15:22:43.894Z,1.04
2023-02-09T15:25:13.843Z,1.01
2023-02-09T15:27:44.740Z,1.06
2023-02-09T15:30:26.529Z,1.08
2023-02-09T15:32:53.481Z,1.01
2023-02-09T15:35:22.990Z,0.99
2023-02-09T15:37:53.238Z,0.97
2023-02-09T15:41:05.611Z,0.95
2023-02-09T15:43:50.917Z,0.92
2023-02-09T15:46:36.451Z,0.81
2023-02-09T15:49:02.939Z,0.72
2023-02-09T15:51:34.038Z,0.60
2023-02-09T15:54:03.817Z,0.59
2023-02-09T15:56:30.469Z,0.57
2023-02-09T15:59:03.401Z,0.42
2023-02-09T16:01:35.835Z,0.30
2023-02-09T16:04:13.513Z,0.29
2023-02-09T16:06:45.407Z,0.25
2023-02-09T16:09:18.857Z,0.08
2023-02-09T16:11:45.292Z,-0.06
2023-02-09T16:14:20.749Z,-0.04
2023-02-09T16:16:48.037Z,-0.23
2023-02-09T16:19:15.463Z,-0.27
2023-02-09T16:21:45.291Z,-0.35
2023-02-09T16:24:31.605Z,-0.44
2023-02-09T16:27:00.569Z,-0.60
2023-02-09T16:29:27.491Z,-0.68
2023-02-09T16:31:54.051Z,-0.71
2023-02-09T16:34:20.625Z,-0.82
2023-02-09T16:36:48.971Z,-0.94
2023-02-09T16:39:18.203Z,-1.02
2023-02-09T16:41:48.264Z,-1.06
2023-02-09T16:44:21.639Z,-1.11
2023-02-09T16:46:51.310Z,-1.25
2023-02-09T16:49:26.912Z,-1.35
2023-02-09T16:51:56.388Z,-1.44
2023-02-09T16:54:23.305Z,-1.46
2023-02-09T16:56:54.513Z,-1.57
2023-02-09T16:59:21.499Z,-1.63
2023-02-09T17:01:48.738Z,-1.65
2023-02-09T17:04:15.641Z,-1.72
2023-02-09T17:06:42.203Z,-1.75
2023-02-09T17:09:15.984Z,-1.83
2023-02-09T17:11:42.989Z,-1.81
2023-02-09T17:14:09.681Z,-1.89
2023-02-09T17:19:13.690Z,-1.92
2023-02-09T17:21:40.849Z,-1.96
2023-02-09T17:24:17.562Z,-2.03
2023-02-09T17:26:44.735Z,-2.06
2023-02-09T17:29:11.628Z,-2.06
2023-02-09T17:31:52.310Z,-2.10
2023-02-09T17:34:20.647Z,-2.18
2023-02-09T17:36:47.142Z,-2.25
2023-02-09T17:39:13.994Z,-2.35
2023-02-09T17:41:46.540Z,-2.38
2023-02-09T17:44:32.104Z,-2.44
2023-02-09T17:47:05.979Z,-2.51
2023-02-09T17:49:33.282Z,-2.52
2023-02-09T17:51:59.809Z,-2.55
2023-02-09T17:54:27.778Z,-2.57
2023-02-09T17:56:54.261Z,-2.59
2023-02-09T17:59:21.344Z,-2.65
2023-02-09T18:01:50.165Z,-2.69
2023-02-09T18:04:23.552Z,-2.69
2023-02-09T18:06:51.114Z,-2.70
2023-02-09T18:09:17.572Z,-2.71
2023-02-09T18:12:05.165Z,-2.73
2023-02-09T18:14:33.556Z,-2.77
2023-02-09T18:17:00.962Z,-2.75
2023-02-09T18:19:27.537Z,-2.79
2023-02-09T18:21:58.868Z,-2.85
2023-02-09T18:24:28.300Z,-2.85
2023-02-09T18:26:55.292Z,-2.86
2023-02-09T18:29:29.257Z,-2.89
2023-02-09T18:32:00.555Z,-2.87
2023-02-09T18:34:38.290Z,-2.91
2023-02-09T18:37:04.730Z,-2.89
2023-02-09T18:39:31.169Z,-2.93
2023-02-09T18:41:57.630Z,-2.95
2023-02-09T18:44:28.762Z,-2.95
2023-02-09T18:46:56.525Z,-2.95
2023-02-09T18:49:22.959Z,-2.96
2023-02-09T18:51:49.693Z,-2.96
2023-02-09T18:54:16.097Z,-3.04
2023-02-09T18:56:42.522Z,-3.10
2023-02-09T18:59:09.000Z,-3.11
2023-02-09T19:01:36.690Z,-3.10
2023-02-09T19:04:03.262Z,-3.20
2023-02-09T19:06:29.694Z,-3.22
2023-02-09T19:08:56.156Z,-3.29
2023-02-09T19:11:22.785Z,-3.33
2023-02-09T19:14:07.834Z,-3.39
2023-02-09T19:16:37.656Z,-3.44
2023-02-09T19:19:04.217Z,-3.45
2023-02-09T19:21:31.886Z,-3.52
2023-02-09T19:23:58.286Z,-3.56
2023-02-09T19:26:24.705Z,-3.56
2023-02-09T19:28:51.158Z,-3.57
2023-02-09T19:31:18.606Z,-3.58
2023-02-09T19:33:45.160Z,-3.59
2023-02-09T19:36:14.361Z,-3.57
2023-02-09T19:38:40.855Z,-3.56
2023-02-09T19:41:11.956Z,-3.55
2023-02-09T19:43:39.719Z,-3.55
2023-02-09T19:46:07.765Z,-3.59
2023-02-09T19:48:34.305Z,-3.59
2023-02-09T19:51:00.816Z,-3.60
2023-02-09T19:53:27.629Z,-3.59
2023-02-09T19:55:54.573Z,-3.54
2023-02-09T19:58:21.745Z,-3.58
2023-02-09T20:00:49.268Z,-3.66
2023-02-09T20:03:16.777Z,-3.77
2023-02-09T20:05:44.092Z,-3.74
2023-02-09T20:08:13.995Z,-3.73
2023-02-09T20:10:40.510Z,-3.73
2023-02-09T20:13:07.223Z,-3.64
2023-02-09T20:15:33.678Z,-3.64
2023-02-09T20:18:00.223Z,-3.61
2023-02-09T20:20:26.701Z,-3.66
2023-02-09T20:22:53.820Z,-3.65
2023-02-09T20:25:20.238Z,-3.71
2023-02-09T20:27:49.685Z,-3.72
2023-02-09T20:30:16.750Z,-3.78
2023-02-09T20:32:43.401Z,-3.73
2023-02-09T20:35:11.705Z,-3.81
2023-02-09T20:37:38.279Z,-3.87
2023-02-09T20:40:05.682Z,-3.87
2023-02-09T20:42:50.690Z,-3.90
2023-02-09T20:45:36.050Z,-3.94
2023-02-09T20:48:04.972Z,-3.93
2023-02-09T20:50:34.612Z,-3.95
2023-02-09T20:53:01.626Z,-3.94
2023-02-09T20:55:29.080Z,-3.97
2023-02-09T20:57:55.873Z,-4.02
2023-02-09T21:00:22.525Z,-4.08
2023-02-09T21:02:49.189Z,-4.15
2023-02-09T21:05:16.614Z,-4.19
2023-02-09T21:07:45.100Z,-4.22
2023-02-09T21:10:12.974Z,-4.29
2023-02-09T21:12:39.751Z,-4.35
2023-02-09T21:15:06.769Z,-4.37
2023-02-09T21:17:33.229Z,-4.42
2023-02-09T21:19:59.975Z,-4.45
2023-02-09T21:22:26.698Z,-4.49
2023-02-09T21:24:53.142Z,-4.50
2023-02-09T21:27:20.489Z,-4.52
2023-02-09T21:29:47.171Z,-4.56
2023-02-09T21:32:13.787Z,-4.58
2023-02-09T21:34:40.203Z,-4.59
2023-02-09T21:37:10.137Z,-4.62
2023-02-09T21:39:36.670Z,-4.59
2023-02-09T21:42:21.662Z,-4.58
2023-02-09T21:44:48.122Z,-4.54
2023-02-09T21:47:14.586Z,-4.54
2023-02-09T21:49:41.105Z,-4.51
2023-02-09T21:52:07.541Z,-4.54
2023-02-09T21:54:34.141Z,-4.60
2023-02-09T21:57:01.087Z,-4.60
2023-02-09T21:59:27.921Z,-4.61
2023-02-09T22:01:54.407Z,-4.61
2023-02-09T22:04:21.085Z,-4.62
2023-02-09T22:06:48.370Z,-4.61
2023-02-09T22:09:14.897Z,-4.64
2023-02-09T22:11:41.362Z,-4.63
2023-02-09T22:14:08.050Z,-4.63
2023-02-09T22:16:34.508Z,-4.67
2023-02-09T22:19:00.937Z,-4.69
2023-02-09T22:21:27.444Z,-4.71
2023-02-09T22:23:55.174Z,-4.75
2023-02-09T22:26:21.723Z,-4.76
2023-02-09T22:28:51.131Z,-4.76
2023-02-09T22:31:19.508Z,-4.83
2023-02-09T22:33:46.096Z,-4.87
2023-02-09T22:36:15.190Z,-4.85
2023-02-09T22:38:42.186Z,-4.89
2023-02-09T22:41:21.348Z,-4.90
2023-02-09T22:43:53.543Z,-4.88
2023-02-09T22:46:22.314Z,-4.90
2023-02-09T22:48:56.994Z,-4.88
2023-02-09T22:51:25.040Z,-4.86
2023-02-09T22:53:58.137Z,-4.89
2023-02-09T22:56:25.697Z,-4.95
2023-02-09T22:58:53.345Z,-4.94
2023-02-09T23:01:19.999Z,-4.96
2023-02-09T23:03:46.553Z,-4.92
2023-02-09T23:06:17.504Z,-4.88
2023-02-09T23:08:44.770Z,-4.87
2023-02-09T23:11:16.682Z,-4.87
2023-02-09T23:13:44.048Z,-4.87
2023-02-09T23:16:16.974Z,-4.85
2023-02-09T23:18:57.081Z,-4.83
2023-02-09T23:21:26.538Z,-4.68
2023-02-09T23:23:53.153Z,-4.64
2023-02-09T23:26:20.674Z,-4.67
2023-02-09T23:28:47.591Z,-4.69
2023-02-09T23:31:16.603Z,-4.71
2023-02-09T23:33:43.885Z,-4.74
2023-02-09T23:36:13.580Z,-4.69
2023-02-09T23:38:39.991Z,-4.68
2023-02-09T23:41:08.241Z,-4.68
2023-02-09T23:43:35.770Z,-4.70
2023-02-09T23:46:08.796Z,-4.73
2023-02-09T23:48:35.305Z,-4.78
2023-02-09T23:51:04.437Z,-4.83
2023-02-09T23:53:31.385Z,-4.86
2023-02-09T23:56:03.879Z,-4.89
2023-02-09T23:58:32.402Z,-4.89
